Time;durP1;ratioP1;P1;durP2;ratioP2;P2;SDS_P1;SDS_P2;PMS_P1;PMS_P2;Temp;Humidity;BMP_temperature;BMP_pressure;BME280_temperature;BME280_humidity;BME280_pressure;Samples;Min_cycle;Max_cycle;Signal;HPM_P1;HPM_P2
2020/12/24 00:00:06;;;;;;;1.42;1.20;;;10.70;97.30;;;;;;5012281;28;20243;-88
2020/12/24 00:02:36;;;;;;;1.40;1.30;;;10.60;97.40;;;;;;5013460;28;20573;-87
2020/12/24 00:05:02;;;;;;;1.42;1.23;;;10.60;97.40;;;;;;4990834;28;20224;-87
2020/12/24 00:07:29;;;;;;;1.13;0.90;;;10.60;97.40;;;;;;4995089;28;20224;-88
2020/12/24 00:09:55;;;;;;;1.50;1.40;;;10.60;97.40;;;;;;4993353;28;20228;-87
2020/12/24 00:12:23;;;;;;;1.45;1.20;;;10.60;97.50;;;;;;5009634;28;20203;-87
2020/12/24 00:14:49;;;;;;;1.38;1.27;;;10.60;97.60;;;;;;5008426;28;20271;-87
2020/12/24 00:17:15;;;;;;;1.23;1.13;;;10.50;97.60;;;;;;5016723;28;20218;-87
2020/12/24 00:19:42;;;;;;;1.40;1.30;;;10.50;97.70;;;;;;5001868;28;20239;-88
2020/12/24 00:22:08;;;;;;;1.25;1.08;;;10.50;97.80;;;;;;4999737;28;20290;-88
2020/12/24 00:24:35;;;;;;;1.38;0.90;;;10.50;97.80;;;;;;4996169;28;20251;-87
2020/12/24 00:27:01;;;;;;;1.60;1.13;;;10.50;97.80;;;;;;4989222;28;20282;-87
2020/12/24 00:29:29;;;;;;;1.20;1.10;;;10.50;98.10;;;;;;4993910;28;20239;-87
2020/12/24 00:31:55;;;;;;;1.75;1.35;;;10.50;98.20;;;;;;4995200;28;20282;-87
2020/12/24 00:34:22;;;;;;;1.35;1.25;;;10.40;98.50;;;;;;5001583;28;20239;-87
2020/12/24 00:36:48;;;;;;;1.40;1.30;;;10.40;98.60;;;;;;4998137;28;20232;-87
2020/12/24 00:39:15;;;;;;;1.42;1.30;;;10.50;98.60;;;;;;4996064;28;20713;-87
2020/12/24 00:41:41;;;;;;;1.42;1.30;;;10.50;98.50;;;;;;4998994;28;20247;-88
2020/12/24 00:44:07;;;;;;;1.30;1.20;;;10.60;98.50;;;;;;5005152;28;20621;-88
2020/12/24 00:46:35;;;;;;;1.40;1.30;;;10.60;98.30;;;;;;5002678;28;20682;-87
2020/12/24 00:49:01;;;;;;;1.05;1.05;;;10.60;98.20;;;;;;5011513;28;20238;-87
2020/12/24 00:51:27;;;;;;;1.48;1.15;;;10.60;98.10;;;;;;4996794;28;20571;-87
2020/12/24 00:53:54;;;;;;;1.40;1.30;;;10.50;98.00;;;;;;4998805;28;20325;-87
2020/12/24 00:56:20;;;;;;;1.30;1.20;;;10.50;98.10;;;;;;5001860;28;20298;-87
2020/12/24 00:58:47;;;;;;;2.85;2.35;;;10.50;98.20;;;;;;4994545;28;20234;-89
2020/12/24 01:01:16;;;;;;;1.67;1.20;;;10.50;98.20;;;;;;5004002;28;20814;-87
2020/12/24 01:03:43;;;;;;;2.17;2.00;;;10.50;98.10;;;;;;4995836;28;20234;-87
2020/12/24 01:06:10;;;;;;;1.83;1.10;;;10.50;98.30;;;;;;5000181;28;20294;-87
2020/12/24 01:08:36;;;;;;;1.65;1.35;;;10.50;98.30;;;;;;5002461;28;20242;-88
2020/12/24 01:11:02;;;;;;;1.38;1.27;;;10.60;98.30;;;;;;5009032;28;20195;-87
2020/12/24 01:13:29;;;;;;;1.92;1.33;;;10.50;98.20;;;;;;5001466;28;20730;-87
2020/12/24 01:15:55;;;;;;;1.63;1.27;;;10.50;98.50;;;;;;4998494;28;20236;-87
2020/12/24 01:18:24;;;;;;;1.52;1.42;;;10.40;98.80;;;;;;5006594;28;20749;-88
2020/12/24 01:20:51;;;;;;;0.93;0.93;;;10.50;98.60;;;;;;5002289;28;20229;-87
2020/12/24 01:23:17;;;;;;;1.30;1.13;;;10.50;98.50;;;;;;4992298;28;20227;-88
2020/12/24 01:25:44;;;;;;;1.13;1.02;;;10.50;98.40;;;;;;5003583;28;20279;-87
2020/12/24 01:28:10;;;;;;;2.00;1.80;;;10.50;98.30;;;;;;4999588;28;20204;-87
2020/12/24 01:30:37;;;;;;;4.68;4.28;;;10.50;98.20;;;;;;5001246;28;20223;-87
2020/12/24 01:33:03;;;;;;;2.05;1.92;;;10.50;98.10;;;;;;5005845;28;20692;-87
2020/12/24 01:35:30;;;;;;;3.47;2.10;;;10.50;98.20;;;;;;5002593;28;20319;-87
2020/12/24 01:37:57;;;;;;;2.63;2.30;;;10.40;98.40;;;;;;5010643;28;20683;-87
2020/12/24 01:40:23;;;;;;;2.40;1.98;;;10.50;98.50;;;;;;5001966;28;20287;-87
2020/12/24 01:42:50;;;;;;;1.88;1.77;;;10.40;98.40;;;;;;5008124;28;20242;-88
2020/12/24 01:45:16;;;;;;;2.00;1.90;;;10.50;98.70;;;;;;5005512;28;20306;-87
2020/12/24 01:47:43;;;;;;;2.00;1.80;;;10.40;98.80;;;;;;4998819;28;20228;-87
2020/12/24 01:50:09;;;;;;;1.73;1.60;;;10.40;99.00;;;;;;5015997;28;20234;-87
2020/12/24 01:52:38;;;;;;;1.70;1.60;;;10.40;99.00;;;;;;5003260;28;20323;-87
2020/12/24 01:55:07;;;;;;;1.58;1.48;;;10.30;99.00;;;;;;5008197;28;20254;-87
2020/12/24 01:57:33;;;;;;;1.77;1.45;;;10.30;99.40;;;;;;5004468;28;20699;-87
2020/12/24 02:00:05;;;;;;;2.85;1.58;;;10.40;99.60;;;;;;5003328;28;20314;-87
2020/12/24 02:02:31;;;;;;;1.75;1.65;;;10.40;99.40;;;;;;5002914;28;20575;-88
2020/12/24 02:04:58;;;;;;;2.88;1.92;;;10.40;99.30;;;;;;5002523;28;20342;-87
2020/12/24 02:07:24;;;;;;;2.22;1.80;;;10.40;99.50;;;;;;5002581;28;20224;-88
2020/12/24 02:09:51;;;;;;;2.10;1.90;;;10.30;99.50;;;;;;5002800;28;20642;-87
2020/12/24 02:12:19;;;;;;;2.40;1.90;;;10.30;99.70;;;;;;5008639;28;20238;-87
2020/12/24 02:14:45;;;;;;;1.60;1.50;;;10.20;99.70;;;;;;5003563;28;20307;-87
2020/12/24 02:17:12;;;;;;;1.52;1.42;;;10.20;99.90;;;;;;5004780;28;20231;-87
2020/12/24 02:19:40;;;;;;;2.25;2.05;;;10.10;99.60;;;;;;4999879;28;20782;-87
2020/12/24 02:22:11;;;;;;;1.40;1.30;;;10.10;99.80;;;;;;5010171;28;20207;-88
2020/12/24 02:24:41;;;;;;;1.98;1.45;;;10.00;99.80;;;;;;4995655;28;20243;-87
2020/12/24 02:27:10;;;;;;;2.22;1.27;;;10.10;99.90;;;;;;4994461;28;20279;-87
2020/12/24 02:29:40;;;;;;;2.33;1.67;;;10.10;99.50;;;;;;5009625;28;20219;-90
2020/12/24 02:32:06;;;;;;;1.70;1.60;;;10.10;99.70;;;;;;5008633;28;20206;-87
2020/12/24 02:34:33;;;;;;;1.48;1.38;;;10.00;99.50;;;;;;5000038;28;20366;-88
2020/12/24 02:36:59;;;;;;;1.77;1.67;;;9.90;99.90;;;;;;5006480;28;20310;-87
2020/12/24 02:39:26;;;;;;;2.13;1.70;;;9.90;99.90;;;;;;5003261;28;20311;-87
2020/12/24 02:41:53;;;;;;;2.38;1.60;;;9.90;99.90;;;;;;5004844;28;20222;-89
2020/12/24 02:44:20;;;;;;;1.80;1.70;;;9.80;99.90;;;;;;4999903;28;20294;-87
2020/12/24 02:46:46;;;;;;;2.13;1.75;;;9.80;99.90;;;;;;5009775;28;20271;-87
2020/12/24 02:49:16;;;;;;;3.83;1.80;;;9.80;99.90;;;;;;4988625;28;20296;-87
2020/12/24 02:51:42;;;;;;;2.08;1.75;;;9.90;99.90;;;;;;5011376;28;20299;-87
2020/12/24 02:54:08;;;;;;;1.98;1.73;;;10.00;99.90;;;;;;5005232;28;20291;-87
2020/12/24 02:56:36;;;;;;;2.67;1.60;;;10.00;99.90;;;;;;4998164;28;20201;-88
2020/12/24 02:59:05;;;;;;;2.35;2.13;;;10.00;99.90;;;;;;4988776;28;20228;-88
2020/12/24 03:01:33;;;;;;;1.90;1.73;;;10.00;99.90;;;;;;5000722;28;20215;-87
2020/12/24 03:03:59;;;;;;;1.58;1.48;;;10.00;99.90;;;;;;5002785;28;20269;-87
2020/12/24 03:06:26;;;;;;;1.83;1.50;;;10.00;99.90;;;;;;4999783;28;20245;-87
2020/12/24 03:08:52;;;;;;;2.92;2.47;;;9.90;99.90;;;;;;4992599;28;20287;-88
2020/12/24 03:11:19;;;;;;;2.25;1.60;;;9.80;99.90;;;;;;5001403;28;20200;-87
2020/12/24 03:13:48;;;;;;;2.35;2.15;;;9.70;99.90;;;;;;4986613;28;20272;-87
2020/12/24 03:16:16;;;;;;;3.05;1.48;;;9.70;99.90;;;;;;5014048;28;20234;-86
2020/12/24 03:18:46;;;;;;;2.03;1.83;;;9.70;99.90;;;;;;5003120;28;20218;-88
2020/12/24 03:21:13;;;;;;;1.60;1.50;;;9.70;99.90;;;;;;5003002;28;20204;-88
2020/12/24 03:23:39;;;;;;;2.28;2.08;;;9.70;99.90;;;;;;5007055;28;20287;-86
2020/12/24 03:26:06;;;;;;;1.52;1.23;;;9.80;99.90;;;;;;5008629;28;20264;-86
2020/12/24 03:28:32;;;;;;;1.10;1.10;;;9.70;99.90;;;;;;5009217;28;20253;-86
2020/12/24 03:31:00;;;;;;;1.35;1.23;;;9.60;99.90;;;;;;4996336;28;20291;-86
2020/12/24 03:33:26;;;;;;;1.50;1.30;;;9.60;99.90;;;;;;5009755;28;20207;-86
2020/12/24 03:35:52;;;;;;;0.98;0.93;;;9.70;99.90;;;;;;5002010;28;20277;-87
2020/12/24 03:38:19;;;;;;;1.10;0.93;;;9.70;99.90;;;;;;5002983;28;20275;-86
2020/12/24 03:40:45;;;;;;;0.77;0.77;;;9.70;99.90;;;;;;5008961;28;20262;-86
2020/12/24 03:43:14;;;;;;;0.90;0.90;;;9.60;99.90;;;;;;5004503;28;20204;-86
2020/12/24 03:45:43;;;;;;;1.05;0.95;;;9.60;99.80;;;;;;5002868;28;20274;-86
2020/12/24 03:48:10;;;;;;;0.60;0.60;;;9.60;99.60;;;;;;4999576;28;20242;-86
2020/12/24 03:50:37;;;;;;;1.00;0.90;;;9.50;99.80;;;;;;5000165;28;20714;-87
2020/12/24 03:53:03;;;;;;;0.95;0.88;;;9.40;99.60;;;;;;5004460;28;20195;-86
2020/12/24 03:55:30;;;;;;;0.80;0.80;;;9.40;99.80;;;;;;5008360;28;20306;-87
2020/12/24 03:57:56;;;;;;;1.30;0.75;;;9.30;99.90;;;;;;4997813;28;20311;-87
2020/12/24 04:00:22;;;;;;;2.38;0.82;;;9.30;99.80;;;;;;4992974;28;20262;-87
2020/12/24 04:02:49;;;;;;;1.58;1.17;;;9.30;99.90;;;;;;4998744;28;20269;-86
2020/12/24 04:05:16;;;;;;;1.15;0.80;;;9.30;99.70;;;;;;5001814;28;20306;-87
2020/12/24 04:07:42;;;;;;;0.98;0.90;;;9.30;99.30;;;;;;5005359;28;20290;-87
2020/12/24 04:10:11;;;;;;;0.60;0.60;;;9.20;98.90;;;;;;4997125;28;20310;-87
2020/12/24 04:12:38;;;;;;;0.57;0.57;;;9.30;98.50;;;;;;5003478;28;20561;-87
2020/12/24 04:15:04;;;;;;;0.70;0.70;;;9.30;98.60;;;;;;5005052;28;20312;-86
2020/12/24 04:17:33;;;;;;;0.60;0.60;;;9.30;98.60;;;;;;5000434;28;20810;-88
2020/12/24 04:19:59;;;;;;;0.70;0.70;;;9.20;98.60;;;;;;4994026;28;20306;-86
2020/12/24 04:22:27;;;;;;;0.50;0.50;;;9.20;98.60;;;;;;4998428;28;20212;-87
2020/12/24 04:24:53;;;;;;;0.73;0.73;;;9.20;98.60;;;;;;4999256;28;20313;-87
2020/12/24 04:27:19;;;;;;;0.60;0.60;;;9.10;98.60;;;;;;5010361;28;20233;-86
2020/12/24 04:29:46;;;;;;;0.88;0.88;;;9.10;98.60;;;;;;5000711;28;20230;-87
2020/12/24 04:32:13;;;;;;;0.60;0.60;;;9.10;98.60;;;;;;5003462;28;20291;-87
2020/12/24 04:34:41;;;;;;;0.60;0.60;;;9.10;98.80;;;;;;5002093;28;20258;-86
2020/12/24 04:37:08;;;;;;;0.52;0.52;;;9.10;98.60;;;;;;5007178;28;20746;-86
2020/12/24 04:39:35;;;;;;;0.68;0.60;;;8.90;98.60;;;;;;5001288;28;20227;-87
2020/12/24 04:42:01;;;;;;;0.52;0.52;;;8.90;98.60;;;;;;5009373;28;20283;-86
2020/12/24 04:44:31;;;;;;;0.45;0.45;;;8.90;98.50;;;;;;4994304;28;20247;-87
2020/12/24 04:46:58;;;;;;;2.47;0.60;;;8.90;98.40;;;;;;4997009;28;20238;-87
2020/12/24 04:49:25;;;;;;;0.50;0.50;;;8.90;97.30;;;;;;5008155;28;20310;-86
2020/12/24 04:51:52;;;;;;;0.70;0.70;;;8.80;97.20;;;;;;4992177;28;20227;-87
2020/12/24 04:54:22;;;;;;;1.75;0.60;;;8.80;97.50;;;;;;4996934;28;20275;-87
2020/12/24 04:56:49;;;;;;;1.10;1.00;;;8.70;98.30;;;;;;5012904;28;20286;-87
2020/12/24 04:59:21;;;;;;;0.50;0.50;;;8.70;98.00;;;;;;4994235;28;20314;-88
2020/12/24 05:01:51;;;;;;;0.80;0.80;;;8.70;97.70;;;;;;5005753;28;20265;-87
2020/12/24 05:04:19;;;;;;;0.60;0.60;;;8.70;97.50;;;;;;5008007;28;20235;-87
2020/12/24 05:06:51;;;;;;;0.68;0.68;;;8.60;97.90;;;;;;4997551;28;20203;-87
2020/12/24 05:09:18;;;;;;;3.00;0.60;;;8.50;97.70;;;;;;4992702;28;20230;-87
2020/12/24 05:11:45;;;;;;;0.68;0.65;;;8.50;98.00;;;;;;5012126;28;20277;-86
2020/12/24 05:14:22;;;;;;;1.95;0.55;;;8.50;97.70;;;;;;4999260;28;20263;-86
2020/12/24 05:16:59;;;;;;;1.75;0.70;;;8.50;97.50;;;;;;5000710;28;20294;-86
2020/12/24 05:19:28;;;;;;;0.93;0.70;;;8.40;97.60;;;;;;5002428;28;20322;-87
2020/12/24 05:21:56;;;;;;;0.75;0.75;;;8.30;97.80;;;;;;5006664;28;20785;-86
2020/12/24 05:24:24;;;;;;;0.70;0.70;;;8.30;98.40;;;;;;5010052;28;20285;-87
2020/12/24 05:26:52;;;;;;;0.63;0.63;;;8.20;98.00;;;;;;5007714;28;20250;-86
2020/12/24 05:29:20;;;;;;;0.40;0.40;;;8.20;96.40;;;;;;4996811;28;20227;-86
2020/12/24 05:31:52;;;;;;;1.43;0.90;;;8.10;97.30;;;;;;5010829;28;20270;-86
2020/12/24 05:34:21;;;;;;;0.40;0.40;;;8.10;96.30;;;;;;5000136;28;20715;-85
2020/12/24 05:36:48;;;;;;;1.33;0.83;;;8.10;96.00;;;;;;4994926;28;20726;-86
2020/12/24 05:39:14;;;;;;;0.83;0.60;;;8.00;96.50;;;;;;5003439;28;20231;-85
2020/12/24 05:41:41;;;;;;;0.53;0.53;;;7.90;96.40;;;;;;4996944;28;20204;-85
2020/12/24 05:44:09;;;;;;;1.03;0.50;;;7.90;96.30;;;;;;4992400;28;20228;-88
2020/12/24 05:46:44;;;;;;;2.27;0.50;;;7.90;96.70;;;;;;5001896;28;20241;-85
2020/12/24 05:49:21;;;;;;;0.70;0.70;;;7.80;96.50;;;;;;5002031;28;20313;-87
2020/12/24 05:51:49;;;;;;;1.30;0.73;;;7.70;96.70;;;;;;5000159;28;20210;-85
2020/12/24 05:54:18;;;;;;;1.70;0.80;;;7.70;97.00;;;;;;4990068;28;20227;-87
2020/12/24 05:56:45;;;;;;;0.70;0.70;;;7.60;96.90;;;;;;4991422;28;20239;-87
2020/12/24 05:59:15;;;;;;;0.40;0.40;;;7.50;96.70;;;;;;4981112;28;20363;-87
2020/12/24 06:01:59;;;;;;;0.80;0.80;;;7.50;96.20;;;;;;4984951;28;20198;-86
2020/12/24 06:04:43;;;;;;;1.13;0.70;;;7.40;96.00;;;;;;4991457;28;20219;-86
2020/12/24 06:07:10;;;;;;;0.93;0.60;;;7.30;96.10;;;;;;4985068;28;20208;-87
2020/12/24 06:09:39;;;;;;;0.87;0.87;;;7.30;96.50;;;;;;4999783;28;20318;-88
2020/12/24 06:12:17;;;;;;;0.90;0.60;;;7.30;96.70;;;;;;5006734;28;20198;-87
2020/12/24 06:14:47;;;;;;;1.27;1.17;;;7.30;96.60;;;;;;5009207;28;20297;-86
2020/12/24 06:17:18;;;;;;;0.50;0.50;;;7.20;96.10;;;;;;5000281;28;20255;-86
2020/12/24 06:19:45;;;;;;;1.17;1.07;;;7.20;96.40;;;;;;4995469;28;20266;-86
2020/12/24 06:22:11;;;;;;;0.60;0.60;;;7.20;96.30;;;;;;5001879;28;20726;-86
2020/12/24 06:24:40;;;;;;;0.77;0.73;;;7.10;96.30;;;;;;4996845;28;20228;-87
2020/12/24 06:27:14;;;;;;;0.60;0.60;;;7.10;96.20;;;;;;4990112;28;20196;-87
2020/12/24 06:29:46;;;;;;;0.70;0.70;;;7.10;96.80;;;;;;4993443;28;20572;-87
2020/12/24 06:32:17;;;;;;;1.23;0.50;;;7.20;95.50;;;;;;4994986;28;20631;-86
2020/12/24 06:34:44;;;;;;;0.80;0.80;;;7.20;95.90;;;;;;4995962;28;20302;-86
2020/12/24 06:37:19;;;;;;;0.53;0.53;;;7.20;95.70;;;;;;5002996;28;20230;-87
2020/12/24 06:39:47;;;;;;;0.77;0.77;;;7.10;96.20;;;;;;4994235;28;20322;-87
2020/12/24 06:42:39;;;;;;;0.60;0.60;;;7.20;95.60;;;;;;4994105;28;20196;-86
2020/12/24 06:45:07;;;;;;;0.60;0.60;;;7.10;95.50;;;;;;4976306;28;20231;-86
2020/12/24 06:47:35;;;;;;;1.70;0.90;;;7.10;95.50;;;;;;4994836;28;20200;-86
2020/12/24 06:50:04;;;;;;;0.67;0.63;;;7.20;95.50;;;;;;5001293;28;20644;-87
2020/12/24 06:52:32;;;;;;;0.80;0.67;;;7.10;95.50;;;;;;4987994;28;20279;-87
2020/12/24 06:55:14;;;;;;;2.73;0.70;;;7.10;94.90;;;;;;4992747;28;20724;-86
2020/12/24 06:57:43;;;;;;;1.27;0.97;;;7.10;94.60;;;;;;4996065;28;20238;-86
2020/12/24 07:00:21;;;;;;;0.70;0.60;;;7.10;94.60;;;;;;4995251;28;20238;-86
2020/12/24 07:02:51;;;;;;;1.40;1.03;;;7.10;94.20;;;;;;5010361;28;20206;-86
2020/12/24 07:05:43;;;;;;;0.90;0.60;;;7.10;93.80;;;;;;4991567;28;20220;-86
2020/12/24 07:08:10;;;;;;;0.60;0.60;;;7.10;93.60;;;;;;4995212;28;20549;-86
2020/12/24 07:10:48;;;;;;;1.47;1.00;;;7.00;93.40;;;;;;5009422;28;20243;-86
2020/12/24 07:13:31;;;;;;;3.50;0.80;;;7.00;93.70;;;;;;4999505;28;20211;-86
2020/12/24 07:16:00;;;;;;;1.17;0.70;;;7.00;93.60;;;;;;4998766;28;20241;-86
2020/12/24 07:18:28;;;;;;;1.40;0.97;;;7.10;93.70;;;;;;5009158;28;20215;-86
2020/12/24 07:20:55;;;;;;;1.03;0.70;;;7.00;93.60;;;;;;4993823;28;20588;-85
2020/12/24 07:23:29;;;;;;;0.70;0.70;;;7.10;93.60;;;;;;5004204;28;20749;-87
2020/12/24 07:25:57;;;;;;;1.07;1.00;;;7.00;93.50;;;;;;4992355;28;20593;-86
2020/12/24 07:28:31;;;;;;;1.33;0.70;;;7.00;93.70;;;;;;4995321;28;20981;-86
2020/12/24 07:30:59;;;;;;;1.23;0.90;;;7.00;93.40;;;;;;4988401;28;20220;-86
2020/12/24 07:33:27;;;;;;;2.10;1.00;;;7.00;93.70;;;;;;5009669;28;20202;-86
2020/12/24 07:35:54;;;;;;;0.60;0.60;;;7.00;93.60;;;;;;5004301;28;20310;-86
2020/12/24 07:38:22;;;;;;;1.07;0.80;;;7.00;93.20;;;;;;4994979;28;20232;-86
2020/12/24 07:40:48;;;;;;;1.27;1.10;;;7.10;92.90;;;;;;4988092;28;20224;-86
2020/12/24 07:43:15;;;;;;;1.10;0.70;;;7.10;92.80;;;;;;4996263;28;20291;-86
2020/12/24 07:45:42;;;;;;;0.93;0.90;;;7.00;93.00;;;;;;5008257;28;20569;-86
2020/12/24 07:48:21;;;;;;;1.13;0.90;;;6.90;92.50;;;;;;4990672;28;20204;-86
2020/12/24 07:50:50;;;;;;;2.57;0.93;;;7.00;92.30;;;;;;4994616;28;20254;-86
2020/12/24 07:53:19;;;;;;;1.60;0.87;;;7.00;92.50;;;;;;4995546;28;20203;-86
2020/12/24 07:55:49;;;;;;;0.80;0.80;;;7.10;92.10;;;;;;5002104;28;20227;-86
2020/12/24 07:58:17;;;;;;;3.37;2.03;;;7.00;92.10;;;;;;4988539;28;20315;-86
2020/12/24 08:00:45;;;;;;;2.37;1.50;;;7.10;91.90;;;;;;5004594;28;20261;-86
2020/12/24 08:03:16;;;;;;;2.63;1.23;;;7.10;91.70;;;;;;5003297;28;20204;-86
2020/12/24 08:05:42;;;;;;;1.77;1.03;;;7.10;91.70;;;;;;4984824;28;20235;-86
2020/12/24 08:08:10;;;;;;;2.10;1.07;;;7.10;91.60;;;;;;4991498;28;20288;-86
2020/12/24 08:10:38;;;;;;;1.17;1.00;;;7.00;91.80;;;;;;4993246;28;20226;-86
2020/12/24 08:13:05;;;;;;;1.73;1.23;;;7.00;91.30;;;;;;5008415;28;20352;-86
2020/12/24 08:15:33;;;;;;;1.00;0.90;;;7.10;91.30;;;;;;4992626;28;20223;-86
2020/12/24 08:18:03;;;;;;;0.80;0.80;;;7.10;91.00;;;;;;4992793;28;20310;-86
2020/12/24 08:20:39;;;;;;;0.83;0.83;;;7.10;91.00;;;;;;5003497;28;20346;-86
2020/12/24 08:23:17;;;;;;;1.23;1.03;;;7.00;91.00;;;;;;5008788;28;20237;-86
2020/12/24 08:25:46;;;;;;;2.03;1.07;;;7.00;91.10;;;;;;5012217;28;20239;-86
2020/12/24 08:28:13;;;;;;;2.63;2.00;;;7.10;90.10;;;;;;5009582;28;20203;-87
2020/12/24 08:30:43;;;;;;;2.10;0.90;;;7.10;90.40;;;;;;4994195;28;20238;-86
2020/12/24 08:33:13;;;;;;;1.13;1.00;;;7.10;90.10;;;;;;5001457;28;20639;-86
2020/12/24 08:35:39;;;;;;;1.67;1.10;;;7.20;90.10;;;;;;4996347;28;20233;-88
2020/12/24 08:38:14;;;;;;;1.33;1.00;;;7.20;90.10;;;;;;5009878;28;20322;-87
2020/12/24 08:40:41;;;;;;;1.67;1.30;;;7.20;90.10;;;;;;4993502;28;20223;-87
2020/12/24 08:43:14;;;;;;;1.53;0.90;;;7.20;90.10;;;;;;5004645;28;20203;-88
2020/12/24 08:45:45;;;;;;;1.57;1.10;;;7.30;90.10;;;;;;5003093;28;20228;-87
2020/12/24 08:48:28;;;;;;;1.80;0.93;;;7.30;90.10;;;;;;5003711;28;20238;-87
2020/12/24 08:50:55;;;;;;;1.57;1.07;;;7.40;90.10;;;;;;4994081;28;20219;-87
2020/12/24 08:53:28;;;;;;;1.87;0.90;;;7.40;90.10;;;;;;4994818;28;20299;-87
2020/12/24 08:55:56;;;;;;;1.10;0.77;;;7.40;89.70;;;;;;4992623;28;20662;-87
2020/12/24 08:58:23;;;;;;;1.90;0.70;;;7.40;89.30;;;;;;5001526;28;20314;-88
2020/12/24 09:00:49;;;;;;;1.67;1.10;;;7.60;89.30;;;;;;4995765;28;20236;-88
2020/12/24 09:03:23;;;;;;;1.60;1.20;;;7.60;89.90;;;;;;5002059;28;20241;-87
2020/12/24 09:05:49;;;;;;;1.30;0.90;;;7.70;88.30;;;;;;4996735;28;20251;-86
2020/12/24 09:08:23;;;;;;;0.97;0.80;;;7.70;87.90;;;;;;4983490;28;20204;-87
2020/12/24 09:10:51;;;;;;;1.53;1.13;;;7.60;89.00;;;;;;4995915;28;20282;-86
2020/12/24 09:13:18;;;;;;;1.60;0.97;;;7.50;88.50;;;;;;4995878;28;20307;-87
2020/12/24 09:15:53;;;;;;;1.27;0.90;;;7.60;88.50;;;;;;5005605;28;20219;-87
2020/12/24 09:18:22;;;;;;;0.90;0.60;;;7.60;88.40;;;;;;5005737;28;20282;-86
2020/12/24 09:20:50;;;;;;;1.07;0.80;;;7.50;88.80;;;;;;4994484;28;20722;-86
2020/12/24 09:23:16;;;;;;;1.13;0.83;;;7.50;88.30;;;;;;4998049;28;20299;-86
2020/12/24 09:25:44;;;;;;;1.33;0.90;;;7.50;89.40;;;;;;4994938;28;20342;-88
2020/12/24 09:28:23;;;;;;;1.37;0.93;;;7.40;89.50;;;;;;4999250;28;20231;-86
2020/12/24 09:30:51;;;;;;;2.00;1.07;;;7.40;89.30;;;;;;5010358;28;20227;-86
2020/12/24 09:33:18;;;;;;;1.53;1.00;;;7.50;88.90;;;;;;5000234;28;20196;-86
2020/12/24 09:35:45;;;;;;;1.27;0.93;;;7.50;89.80;;;;;;4995347;28;20235;-86
2020/12/24 09:38:14;;;;;;;0.80;0.80;;;7.50;88.90;;;;;;4995170;28;20523;-86
2020/12/24 09:40:42;;;;;;;3.17;1.17;;;7.50;87.80;;;;;;4995899;28;20223;-86
2020/12/24 09:43:09;;;;;;;1.57;0.80;;;7.50;88.30;;;;;;4999568;28;20291;-86
2020/12/24 09:45:37;;;;;;;0.90;0.90;;;7.60;87.40;;;;;;4998574;28;20247;-88
2020/12/24 09:48:05;;;;;;;1.33;0.80;;;7.60;87.40;;;;;;4994921;28;20199;-89
2020/12/24 09:50:37;;;;;;;2.50;0.80;;;7.60;87.00;;;;;;4988605;28;20245;-88
2020/12/24 09:53:09;;;;;;;0.93;0.80;;;7.70;88.40;;;;;;5001259;28;20290;-88
2020/12/24 09:55:38;;;;;;;1.37;0.90;;;7.70;87.50;;;;;;4992312;28;20316;-87
2020/12/24 09:58:04;;;;;;;1.10;0.90;;;7.70;88.00;;;;;;5000633;28;20231;-88
2020/12/24 10:00:30;;;;;;;0.87;0.83;;;7.80;87.10;;;;;;4992739;28;20259;-86
2020/12/24 10:02:58;;;;;;;3.57;1.10;;;8.00;85.60;;;;;;4996466;28;20200;-86
2020/12/24 10:05:24;;;;;;;0.80;0.70;;;8.10;86.20;;;;;;4992517;28;20220;-87
2020/12/24 10:07:50;;;;;;;1.43;1.23;;;8.10;85.00;;;;;;5003025;28;20526;-86
2020/12/24 10:10:17;;;;;;;2.43;1.03;;;8.20;86.40;;;;;;5006588;28;20266;-87
2020/12/24 10:12:44;;;;;;;1.60;1.03;;;8.20;85.50;;;;;;4998162;28;20258;-87
2020/12/24 10:15:11;;;;;;;2.13;0.97;;;8.20;83.90;;;;;;5006646;28;20298;-87
2020/12/24 10:17:46;;;;;;;1.47;0.90;;;8.20;83.90;;;;;;4999485;28;20267;-87
2020/12/24 10:20:15;;;;;;;1.63;0.90;;;8.20;82.90;;;;;;4989144;28;20785;-86
2020/12/24 10:22:41;;;;;;;1.70;1.07;;;8.30;84.00;;;;;;5006240;28;20632;-86
2020/12/24 10:25:09;;;;;;;1.00;0.80;;;8.20;83.90;;;;;;5010425;28;20259;-87
2020/12/24 10:27:35;;;;;;;1.37;0.93;;;8.30;82.70;;;;;;5000605;28;20211;-86
2020/12/24 10:30:02;;;;;;;1.10;0.90;;;8.20;82.70;;;;;;4993641;28;20230;-87
2020/12/24 10:32:29;;;;;;;1.03;0.93;;;8.20;83.30;;;;;;5003936;28;20258;-86
2020/12/24 10:34:56;;;;;;;3.73;1.20;;;8.20;83.80;;;;;;5003031;28;20682;-87
2020/12/24 10:37:23;;;;;;;2.70;1.00;;;8.20;84.40;;;;;;5014027;28;20192;-87
2020/12/24 10:39:52;;;;;;;2.20;1.37;;;8.30;82.40;;;;;;5002534;28;20235;-87
2020/12/24 10:42:28;;;;;;;1.57;0.80;;;8.40;82.10;;;;;;5002694;28;20650;-87
2020/12/24 10:44:57;;;;;;;1.90;1.07;;;8.60;82.50;;;;;;4992541;28;20251;-86
2020/12/24 10:47:27;;;;;;;1.15;0.93;;;8.60;82.20;;;;;;4998713;28;20223;-86
2020/12/24 10:49:59;;;;;;;1.63;1.10;;;8.80;81.00;;;;;;5003862;28;20298;-86
2020/12/24 10:52:26;;;;;;;1.02;0.90;;;8.80;79.20;;;;;;5009730;28;20235;-86
2020/12/24 10:54:53;;;;;;;1.27;0.90;;;8.90;79.20;;;;;;4995695;28;20286;-86
2020/12/24 10:57:19;;;;;;;1.98;0.95;;;8.80;78.50;;;;;;5000401;28;20227;-86
2020/12/24 10:59:46;;;;;;;2.25;1.25;;;8.80;78.70;;;;;;4998392;28;20242;-86
2020/12/24 11:02:12;;;;;;;3.42;0.70;;;8.80;79.30;;;;;;5011089;28;20556;-86
2020/12/24 11:04:38;;;;;;;0.93;0.93;;;8.80;79.00;;;;;;4998793;28;20311;-87
2020/12/24 11:07:05;;;;;;;1.05;0.95;;;8.80;78.70;;;;;;4999375;28;20200;-87
2020/12/24 11:09:32;;;;;;;1.35;1.10;;;8.90;78.30;;;;;;5006516;28;20239;-86
2020/12/24 11:12:01;;;;;;;1.63;1.13;;;8.90;78.20;;;;;;5012291;28;20241;-86
2020/12/24 11:14:33;;;;;;;3.08;1.00;;;9.00;77.60;;;;;;4999435;28;20274;-87
2020/12/24 11:17:00;;;;;;;2.15;0.93;;;9.00;78.50;;;;;;5007278;28;20220;-87
2020/12/24 11:19:29;;;;;;;2.10;1.00;;;9.20;75.80;;;;;;5000457;28;20769;-86
2020/12/24 11:21:59;;;;;;;2.78;1.10;;;9.30;75.30;;;;;;5001358;28;20204;-86
2020/12/24 11:24:28;;;;;;;1.67;0.90;;;9.50;75.90;;;;;;4998497;28;20279;-86
2020/12/24 11:26:56;;;;;;;1.13;0.90;;;9.70;74.60;;;;;;4997014;28;20210;-86
2020/12/24 11:29:25;;;;;;;1.17;0.85;;;9.80;74.80;;;;;;5002123;28;20251;-87
2020/12/24 11:31:51;;;;;;;1.30;1.00;;;10.00;68.80;;;;;;4997241;28;20679;-87
2020/12/24 11:34:20;;;;;;;2.45;0.90;;;10.10;65.50;;;;;;5010882;28;20702;-86
2020/12/24 11:36:49;;;;;;;2.78;1.15;;;10.20;66.20;;;;;;5000878;28;20287;-89
2020/12/24 11:39:15;;;;;;;2.47;1.10;;;10.30;65.90;;;;;;4998230;28;20243;-88
2020/12/24 11:41:42;;;;;;;2.15;1.00;;;10.60;62.60;;;;;;5005717;28;20654;-88
2020/12/24 11:44:09;;;;;;;1.20;1.10;;;10.70;62.40;;;;;;4994879;28;20251;-87
2020/12/24 11:46:38;;;;;;;1.90;0.85;;;10.70;62.40;;;;;;5006510;28;20560;-88
2020/12/24 11:49:04;;;;;;;1.23;0.88;;;10.50;60.00;;;;;;4996352;28;20310;-88
2020/12/24 11:51:30;;;;;;;2.92;1.13;;;10.40;60.10;;;;;;5017344;28;20207;-87
2020/12/24 11:53:57;;;;;;;3.40;1.85;;;10.20;62.00;;;;;;5005717;28;20200;-87
2020/12/24 11:56:23;;;;;;;2.25;1.00;;;10.00;63.50;;;;;;5016018;28;20201;-87
2020/12/24 11:58:53;;;;;;;4.03;1.92;;;10.00;64.00;;;;;;4995348;28;20763;-87
2020/12/24 12:01:21;;;;;;;2.17;1.20;;;9.90;65.70;;;;;;5005385;28;20226;-87
2020/12/24 12:03:51;;;;;;;5.72;1.75;;;9.90;65.50;;;;;;5007752;28;20214;-87
2020/12/24 12:06:20;;;;;;;2.20;1.02;;;9.90;65.50;;;;;;5002134;28;20199;-86
2020/12/24 12:08:47;;;;;;;2.15;1.17;;;9.90;66.70;;;;;;5015162;28;20207;-87
2020/12/24 12:11:14;;;;;;;2.20;0.93;;;9.90;66.00;;;;;;5011352;28;20212;-87
2020/12/24 12:13:41;;;;;;;3.80;1.35;;;9.90;66.30;;;;;;4997169;28;20280;-88
2020/12/24 12:16:08;;;;;;;4.28;1.00;;;9.90;67.30;;;;;;4999947;28;20290;-87
2020/12/24 12:18:36;;;;;;;1.48;1.00;;;9.90;66.40;;;;;;5000649;28;20222;-87
2020/12/24 12:21:04;;;;;;;1.88;0.93;;;10.10;64.30;;;;;;5004403;28;20262;-86
2020/12/24 12:23:33;;;;;;;1.70;0.90;;;10.20;60.90;;;;;;5003490;28;20227;-86
2020/12/24 12:26:01;;;;;;;1.15;0.82;;;10.50;59.20;;;;;;5001551;28;20235;-86
2020/12/24 12:28:28;;;;;;;1.55;1.00;;;10.80;59.90;;;;;;4991232;28;20200;-86
2020/12/24 12:30:56;;;;;;;1.50;1.02;;;10.80;58.60;;;;;;4996793;28;20317;-86
2020/12/24 12:33:23;;;;;;;1.95;1.10;;;10.70;56.20;;;;;;5004980;28;20196;-86
2020/12/24 12:35:50;;;;;;;0.93;0.90;;;10.70;57.90;;;;;;5002299;28;20295;-86
2020/12/24 12:38:19;;;;;;;2.28;0.90;;;10.60;58.60;;;;;;5000242;28;20220;-87
2020/12/24 12:40:45;;;;;;;2.88;1.02;;;10.40;57.40;;;;;;5003110;28;20344;-86
2020/12/24 12:43:12;;;;;;;4.05;1.13;;;10.20;59.60;;;;;;5005013;28;20227;-87
2020/12/24 12:45:38;;;;;;;1.63;0.90;;;10.20;60.40;;;;;;5009953;28;20318;-88
2020/12/24 12:48:05;;;;;;;3.75;0.85;;;10.10;57.60;;;;;;4991707;28;20254;-86
2020/12/24 12:50:31;;;;;;;1.98;1.00;;;9.90;61.30;;;;;;5008199;28;20291;-86
2020/12/24 12:52:59;;;;;;;3.13;1.30;;;9.90;62.20;;;;;;5000245;28;20226;-86
2020/12/24 12:55:25;;;;;;;2.65;0.90;;;10.00;60.10;;;;;;4997421;28;20220;-86
2020/12/24 12:57:52;;;;;;;1.25;1.05;;;10.00;61.50;;;;;;5005430;28;20229;-86